ADDS METAR Data INFO
IDs: Format: Raw Decoded Include TAF

Data at: 0214 UTC 17 Aug 2018

NZCH 170200Z AUTO 22007KT 170V250 9999 BKN080/// 13/07 Q0998 NOSIG
NZCH 170130Z AUTO 23009KT 200V270 9999 FEW065/// SCT085/// 12/07 Q0998 NOSIG
NZCH 170100Z AUTO 22006KT 9999 BKN070 BKN085 12/07 Q0998 NOSIG
NZCH 170030Z AUTO 21004KT 180V240 9999 FEW065/// OVC085/// 11/06 Q0998 NOSIG
NZCH 170000Z AUTO 23005KT 200V300 9999 SCT070/// BKN080/// OVC100/// 11/06 Q0998 NOSIG
NZCH 162330Z AUTO 23007KT 9999 SCT075/// BKN090/// 11/05 Q0998 NOSIG

TAF NZCH 162312Z 1700/1800 24005KT CAVOK
  FM170200 24015KT 9999 -SHRA BKN040
  TEMPO 1703/1705 6000 SHRA FEW020TCU
  BECMG 1705/1707 20015KT
  TEMPO 1705/1711 4000 SHRA BKN012 FEW020TCU
  BECMG 1716/1718 20005KT